sensor_id;sensor_type;location;lat;lon;timestamp;pressure;altitude;pressure_sealevel;temperature;humidity
68873;BME280;55907;50.806;12.882;2023-05-18T00:02:56;982.0;;;8.2;69.3
68873;BME280;55907;50.806;12.882;2023-05-18T00:05:58;982.0;;;8.1;69.2
68873;BME280;55907;50.806;12.882;2023-05-18T00:09:00;982.0;;;8.1;69.0
68873;BME280;55907;50.806;12.882;2023-05-18T00:12:03;982.0;;;8.1;68.9
68873;BME280;55907;50.806;12.882;2023-05-18T00:15:03;982.1;;;8.1;69.7
68873;BME280;55907;50.806;12.882;2023-05-18T00:18:04;982.0;;;8.1;68.7
68873;BME280;55907;50.806;12.882;2023-05-18T00:21:05;982.0;;;8.1;68.2
68873;BME280;55907;50.806;12.882;2023-05-18T00:24:07;982.0;;;8.0;69.3
68873;BME280;55907;50.806;12.882;2023-05-18T00:27:08;982.0;;;8.0;69.8
68873;BME280;55907;50.806;12.882;2023-05-18T00:30:11;982.1;;;7.9;70.8
68873;BME280;55907;50.806;12.882;2023-05-18T00:33:11;982.0;;;7.9;70.1
68873;BME280;55907;50.806;12.882;2023-05-18T00:36:13;982.1;;;7.9;70.2
68873;BME280;55907;50.806;12.882;2023-05-18T00:39:14;982.1;;;7.9;69.1
68873;BME280;55907;50.806;12.882;2023-05-18T00:42:16;982.1;;;7.8;69.7
68873;BME280;55907;50.806;12.882;2023-05-18T00:48:19;982.1;;;7.8;70.1
68873;BME280;55907;50.806;12.882;2023-05-18T00:51:22;982.1;;;7.7;70.3
68873;BME280;55907;50.806;12.882;2023-05-18T00:54:23;982.1;;;7.7;68.8
68873;BME280;55907;50.806;12.882;2023-05-18T00:57:23;982.2;;;7.6;69.5
68873;BME280;55907;50.806;12.882;2023-05-18T01:00:25;982.2;;;7.6;69.4
68873;BME280;55907;50.806;12.882;2023-05-18T01:03:27;982.2;;;7.5;69.8
68873;BME280;55907;50.806;12.882;2023-05-18T01:06:28;982.2;;;7.4;70.0
68873;BME280;55907;50.806;12.882;2023-05-18T01:09:30;982.2;;;7.4;70.7
68873;BME280;55907;50.806;12.882;2023-05-18T01:12:35;982.2;;;7.3;70.5
68873;BME280;55907;50.806;12.882;2023-05-18T01:15:34;982.2;;;7.3;70.3
68873;BME280;55907;50.806;12.882;2023-05-18T01:18:39;982.3;;;7.2;70.6
68873;BME280;55907;50.806;12.882;2023-05-18T01:21:43;982.3;;;7.2;71.4
68873;BME280;55907;50.806;12.882;2023-05-18T01:24:41;982.2;;;7.1;71.9
68873;BME280;55907;50.806;12.882;2023-05-18T01:27:39;982.3;;;7.1;72.0
68873;BME280;55907;50.806;12.882;2023-05-18T01:30:40;982.3;;;7.1;71.9
68873;BME280;55907;50.806;12.882;2023-05-18T01:33:42;982.3;;;7.0;71.8
68873;BME280;55907;50.806;12.882;2023-05-18T01:36:43;982.3;;;7.0;72.6
68873;BME280;55907;50.806;12.882;2023-05-18T01:39:45;982.4;;;6.9;72.5
68873;BME280;55907;50.806;12.882;2023-05-18T01:42:49;982.4;;;6.9;73.1
68873;BME280;55907;50.806;12.882;2023-05-18T01:45:50;982.4;;;6.9;73.3
68873;BME280;55907;50.806;12.882;2023-05-18T01:48:53;982.4;;;6.8;74.1
68873;BME280;55907;50.806;12.882;2023-05-18T01:51:53;982.4;;;6.8;74.4
68873;BME280;55907;50.806;12.882;2023-05-18T01:54:53;982.4;;;6.7;74.4
68873;BME280;55907;50.806;12.882;2023-05-18T01:57:55;982.4;;;6.7;74.9
68873;BME280;55907;50.806;12.882;2023-05-18T02:00:55;982.4;;;6.6;75.1
68873;BME280;55907;50.806;12.882;2023-05-18T02:03:57;982.4;;;6.6;75.6
68873;BME280;55907;50.806;12.882;2023-05-18T02:06:58;982.4;;;6.5;75.6
68873;BME280;55907;50.806;12.882;2023-05-18T02:10:00;982.4;;;6.4;75.1
68873;BME280;55907;50.806;12.882;2023-05-18T02:13:01;982.4;;;6.4;75.9
68873;BME280;55907;50.806;12.882;2023-05-18T02:16:03;982.4;;;6.3;76.9
68873;BME280;55907;50.806;12.882;2023-05-18T02:19:04;982.4;;;6.2;76.7
68873;BME280;55907;50.806;12.882;2023-05-18T02:22:06;982.4;;;6.2;77.5
68873;BME280;55907;50.806;12.882;2023-05-18T02:25:08;982.4;;;6.2;77.3
68873;BME280;55907;50.806;12.882;2023-05-18T02:31:11;982.4;;;6.1;78.1
68873;BME280;55907;50.806;12.882;2023-05-18T02:37:14;982.4;;;5.9;78.7
68873;BME280;55907;50.806;12.882;2023-05-18T02:40:15;982.4;;;5.9;78.9
68873;BME280;55907;50.806;12.882;2023-05-18T02:43:17;982.4;;;5.9;79.2
68873;BME280;55907;50.806;12.882;2023-05-18T02:46:18;982.4;;;5.9;78.2
68873;BME280;55907;50.806;12.882;2023-05-18T02:49:20;982.4;;;5.8;78.8
68873;BME280;55907;50.806;12.882;2023-05-18T02:52:21;982.4;;;5.8;79.9
68873;BME280;55907;50.806;12.882;2023-05-18T02:55:23;982.5;;;5.7;77.6
68873;BME280;55907;50.806;12.882;2023-05-18T02:58:24;982.5;;;5.7;78.0
68873;BME280;55907;50.806;12.882;2023-05-18T03:01:26;982.4;;;5.6;78.2
68873;BME280;55907;50.806;12.882;2023-05-18T03:04:27;982.4;;;5.6;78.4
68873;BME280;55907;50.806;12.882;2023-05-18T03:07:29;982.5;;;5.6;78.0
68873;BME280;55907;50.806;12.882;2023-05-18T03:10:31;982.5;;;5.6;78.1
68873;BME280;55907;50.806;12.882;2023-05-18T03:13:32;982.4;;;5.6;78.2
68873;BME280;55907;50.806;12.882;2023-05-18T03:16:33;982.5;;;5.6;78.6
68873;BME280;55907;50.806;12.882;2023-05-18T03:19:35;982.5;;;5.6;78.3
68873;BME280;55907;50.806;12.882;2023-05-18T03:22:36;982.5;;;5.6;78.4
68873;BME280;55907;50.806;12.882;2023-05-18T03:25:38;982.5;;;5.7;78.8
68873;BME280;55907;50.806;12.882;2023-05-18T03:28:39;982.6;;;5.7;78.5
68873;BME280;55907;50.806;12.882;2023-05-18T03:31:41;982.6;;;5.8;78.7
68873;BME280;55907;50.806;12.882;2023-05-18T03:34:43;982.6;;;5.7;78.2
68873;BME280;55907;50.806;12.882;2023-05-18T03:37:44;982.7;;;5.6;78.9
68873;BME280;55907;50.806;12.882;2023-05-18T03:40:46;982.7;;;5.6;79.4
68873;BME280;55907;50.806;12.882;2023-05-18T03:43:47;982.7;;;5.5;79.4
68873;BME280;55907;50.806;12.882;2023-05-18T03:49:50;982.7;;;5.5;80.3
68873;BME280;55907;50.806;12.882;2023-05-18T03:52:52;982.7;;;5.5;80.9
68873;BME280;55907;50.806;12.882;2023-05-18T03:55:53;982.7;;;5.6;80.7
68873;BME280;55907;50.806;12.882;2023-05-18T04:01:56;982.8;;;5.8;80.5
68873;BME280;55907;50.806;12.882;2023-05-18T04:04:58;982.8;;;5.8;80.1
68873;BME280;55907;50.806;12.882;2023-05-18T04:07:59;982.8;;;6.0;79.6
68873;BME280;55907;50.806;12.882;2023-05-18T04:11:01;982.8;;;6.1;79.3
68873;BME280;55907;50.806;12.882;2023-05-18T04:14:02;982.8;;;6.1;79.2
68873;BME280;55907;50.806;12.882;2023-05-18T04:17:04;982.9;;;6.2;79.3
68873;BME280;55907;50.806;12.882;2023-05-18T04:20:06;982.9;;;6.3;78.1
68873;BME280;55907;50.806;12.882;2023-05-18T04:23:07;982.9;;;6.5;78.2
68873;BME280;55907;50.806;12.882;2023-05-18T04:26:08;982.9;;;6.7;78.0
68873;BME280;55907;50.806;12.882;2023-05-18T04:29:10;983.0;;;6.9;77.3
68873;BME280;55907;50.806;12.882;2023-05-18T04:32:11;982.9;;;7.2;76.2
68873;BME280;55907;50.806;12.882;2023-05-18T04:35:13;982.9;;;7.3;75.7
68873;BME280;55907;50.806;12.882;2023-05-18T04:38:15;982.9;;;7.5;74.8
68873;BME280;55907;50.806;12.882;2023-05-18T04:41:16;983.0;;;7.8;73.9
68873;BME280;55907;50.806;12.882;2023-05-18T04:44:18;983.0;;;8.0;71.8
68873;BME280;55907;50.806;12.882;2023-05-18T04:47:19;983.0;;;8.1;71.7
68873;BME280;55907;50.806;12.882;2023-05-18T04:50:21;983.0;;;8.2;70.6
68873;BME280;55907;50.806;12.882;2023-05-18T04:53:22;983.0;;;8.4;69.9
68873;BME280;55907;50.806;12.882;2023-05-18T04:56:24;983.1;;;8.7;69.4
68873;BME280;55907;50.806;12.882;2023-05-18T04:59:25;983.1;;;8.9;68.8
68873;BME280;55907;50.806;12.882;2023-05-18T05:02:27;983.1;;;9.2;67.8
68873;BME280;55907;50.806;12.882;2023-05-18T05:05:28;983.0;;;10.0;66.2
68873;BME280;55907;50.806;12.882;2023-05-18T05:08:30;983.1;;;11.1;62.6
68873;BME280;55907;50.806;12.882;2023-05-18T05:11:31;983.1;;;12.1;59.9
68873;BME280;55907;50.806;12.882;2023-05-18T05:14:33;983.1;;;13.3;57.2
68873;BME280;55907;50.806;12.882;2023-05-18T05:17:34;983.0;;;14.0;54.2
68873;BME280;55907;50.806;12.882;2023-05-18T05:20:35;983.0;;;14.1;53.6
68873;BME280;55907;50.806;12.882;2023-05-18T05:23:37;983.1;;;13.7;53.2
68873;BME280;55907;50.806;12.882;2023-05-18T05:26:38;983.1;;;13.2;54.8
68873;BME280;55907;50.806;12.882;2023-05-18T05:29:40;983.1;;;12.8;56.4
68873;BME280;55907;50.806;12.882;2023-05-18T05:32:41;983.1;;;12.6;56.6
68873;BME280;55907;50.806;12.882;2023-05-18T05:35:43;983.1;;;12.5;57.0
68873;BME280;55907;50.806;12.882;2023-05-18T05:38:44;983.1;;;12.5;57.1
68873;BME280;55907;50.806;12.882;2023-05-18T05:41:46;983.1;;;12.3;57.1
68873;BME280;55907;50.806;12.882;2023-05-18T05:44:47;983.2;;;12.2;57.3
68873;BME280;55907;50.806;12.882;2023-05-18T05:47:49;983.2;;;12.1;56.7
68873;BME280;55907;50.806;12.882;2023-05-18T05:50:50;983.2;;;12.2;56.0
68873;BME280;55907;50.806;12.882;2023-05-18T05:53:52;983.2;;;12.1;55.9
68873;BME280;55907;50.806;12.882;2023-05-18T05:56:53;983.2;;;12.2;56.2
68873;BME280;55907;50.806;12.882;2023-05-18T05:59:55;983.2;;;12.3;55.3
68873;BME280;55907;50.806;12.882;2023-05-18T06:02:56;983.2;;;12.4;54.7
68873;BME280;55907;50.806;12.882;2023-05-18T06:08:59;983.2;;;12.9;51.9
68873;BME280;55907;50.806;12.882;2023-05-18T06:12:01;983.2;;;13.1;51.8
68873;BME280;55907;50.806;12.882;2023-05-18T06:15:02;983.3;;;13.1;51.6
68873;BME280;55907;50.806;12.882;2023-05-18T06:18:04;983.3;;;12.9;52.3
68873;BME280;55907;50.806;12.882;2023-05-18T06:21:05;983.3;;;12.6;52.2
68873;BME280;55907;50.806;12.882;2023-05-18T06:24:07;983.3;;;12.5;52.7
68873;BME280;55907;50.806;12.882;2023-05-18T06:27:08;983.4;;;12.5;53.1
68873;BME280;55907;50.806;12.882;2023-05-18T06:30:10;983.4;;;12.7;52.0
68873;BME280;55907;50.806;12.882;2023-05-18T06:36:13;983.4;;;13.1;52.4
68873;BME280;55907;50.806;12.882;2023-05-18T06:42:15;983.5;;;13.5;51.0
68873;BME280;55907;50.806;12.882;2023-05-18T06:45:17;983.5;;;13.6;50.1
68873;BME280;55907;50.806;12.882;2023-05-18T06:48:18;983.5;;;13.8;50.2
68873;BME280;55907;50.806;12.882;2023-05-18T06:54:21;983.5;;;13.9;48.9
68873;BME280;55907;50.806;12.882;2023-05-18T06:57:22;983.5;;;13.9;51.1
68873;BME280;55907;50.806;12.882;2023-05-18T07:00:24;983.5;;;14.1;49.5
68873;BME280;55907;50.806;12.882;2023-05-18T07:03:25;983.5;;;14.4;49.8
68873;BME280;55907;50.806;12.882;2023-05-18T07:06:27;983.4;;;14.9;48.4
68873;BME280;55907;50.806;12.882;2023-05-18T07:09:28;983.5;;;15.2;47.4
68873;BME280;55907;50.806;12.882;2023-05-18T07:15:31;983.4;;;15.3;46.3
68873;BME280;55907;50.806;12.882;2023-05-18T07:21:34;983.4;;;15.3;45.8
68873;BME280;55907;50.806;12.882;2023-05-18T07:24:35;983.4;;;15.2;47.1
68873;BME280;55907;50.806;12.882;2023-05-18T07:27:37;983.4;;;15.1;45.2
68873;BME280;55907;50.806;12.882;2023-05-18T07:30:38;983.5;;;15.1;45.3
68873;BME280;55907;50.806;12.882;2023-05-18T07:33:40;983.5;;;15.2;44.1
68873;BME280;55907;50.806;12.882;2023-05-18T07:36:41;983.4;;;15.4;43.4
68873;BME280;55907;50.806;12.882;2023-05-18T07:39:43;983.4;;;15.6;42.9
68873;BME280;55907;50.806;12.882;2023-05-18T07:42:44;983.5;;;15.6;43.0
68873;BME280;55907;50.806;12.882;2023-05-18T07:48:47;983.5;;;15.2;44.3
68873;BME280;55907;50.806;12.882;2023-05-18T07:51:48;983.5;;;14.9;44.7
68873;BME280;55907;50.806;12.882;2023-05-18T07:54:51;983.6;;;14.7;44.1
68873;BME280;55907;50.806;12.882;2023-05-18T07:57:51;983.5;;;14.2;44.4
68873;BME280;55907;50.806;12.882;2023-05-18T08:00:53;983.6;;;13.9;45.1
68873;BME280;55907;50.806;12.882;2023-05-18T08:03:54;983.5;;;13.8;44.7
68873;BME280;55907;50.806;12.882;2023-05-18T08:09:57;983.4;;;14.3;44.5
68873;BME280;55907;50.806;12.882;2023-05-18T08:12:58;983.5;;;14.3;43.6
68873;BME280;55907;50.806;12.882;2023-05-18T08:16:00;983.4;;;14.3;44.0
68873;BME280;55907;50.806;12.882;2023-05-18T08:25:05;983.6;;;15.2;42.3
68873;BME280;55907;50.806;12.882;2023-05-18T08:28:06;983.6;;;15.6;40.7
68873;BME280;55907;50.806;12.882;2023-05-18T08:31:07;983.5;;;15.7;40.2
68873;BME280;55907;50.806;12.882;2023-05-18T08:34:08;983.6;;;16.1;40.2
68873;BME280;55907;50.806;12.882;2023-05-18T08:37:10;983.6;;;17.1;38.6
68873;BME280;55907;50.806;12.882;2023-05-18T08:40:12;983.6;;;17.8;36.7
68873;BME280;55907;50.806;12.882;2023-05-18T08:43:19;983.6;;;18.2;36.2
68873;BME280;55907;50.806;12.882;2023-05-18T08:46:18;983.5;;;17.7;36.4
68873;BME280;55907;50.806;12.882;2023-05-18T08:49:18;983.5;;;17.2;37.6
68873;BME280;55907;50.806;12.882;2023-05-18T08:55:18;983.5;;;16.4;38.8
68873;BME280;55907;50.806;12.882;2023-05-18T08:58:31;983.5;;;16.1;40.1
68873;BME280;55907;50.806;12.882;2023-05-18T09:01:22;983.5;;;16.1;39.5
68873;BME280;55907;50.806;12.882;2023-05-18T09:04:23;983.5;;;16.0;40.4
68873;BME280;55907;50.806;12.882;2023-05-18T09:07:25;983.4;;;16.0;40.4
68873;BME280;55907;50.806;12.882;2023-05-18T09:13:28;983.3;;;17.5;38.6
68873;BME280;55907;50.806;12.882;2023-05-18T09:16:28;983.2;;;18.6;37.4
68873;BME280;55907;50.806;12.882;2023-05-18T09:25:33;983.2;;;20.2;34.0
68873;BME280;55907;50.806;12.882;2023-05-18T09:28:35;983.3;;;19.7;33.8
68873;BME280;55907;50.806;12.882;2023-05-18T09:34:38;983.2;;;18.5;35.2
68873;BME280;55907;50.806;12.882;2023-05-18T09:37:40;983.3;;;18.0;35.7
68873;BME280;55907;50.806;12.882;2023-05-18T09:40:43;983.4;;;17.9;37.0
68873;BME280;55907;50.806;12.882;2023-05-18T09:46:42;983.4;;;17.7;37.7
68873;BME280;55907;50.806;12.882;2023-05-18T09:49:45;983.4;;;17.5;37.6
68873;BME280;55907;50.806;12.882;2023-05-18T09:55:48;983.4;;;16.8;38.6
68873;BME280;55907;50.806;12.882;2023-05-18T09:58:48;983.3;;;16.6;38.7
68873;BME280;55907;50.806;12.882;2023-05-18T10:01:54;983.3;;;16.6;39.1
68873;BME280;55907;50.806;12.882;2023-05-18T10:04:51;983.3;;;16.7;38.9
68873;BME280;55907;50.806;12.882;2023-05-18T10:07:53;983.2;;;16.8;38.5
68873;BME280;55907;50.806;12.882;2023-05-18T10:10:54;983.3;;;16.9;37.3
68873;BME280;55907;50.806;12.882;2023-05-18T10:13:57;983.2;;;16.9;38.5
68873;BME280;55907;50.806;12.882;2023-05-18T10:19:58;983.2;;;17.1;37.7
68873;BME280;55907;50.806;12.882;2023-05-18T10:23:02;983.3;;;17.5;36.4
68873;BME280;55907;50.806;12.882;2023-05-18T10:26:04;983.2;;;17.5;35.9
68873;BME280;55907;50.806;12.882;2023-05-18T10:32:04;983.1;;;17.4;36.3
68873;BME280;55907;50.806;12.882;2023-05-18T10:41:08;983.2;;;17.7;35.7
68873;BME280;55907;50.806;12.882;2023-05-18T10:44:09;983.1;;;17.5;36.1
68873;BME280;55907;50.806;12.882;2023-05-18T10:47:13;983.2;;;17.4;36.6
68873;BME280;55907;50.806;12.882;2023-05-18T10:53:15;983.2;;;17.7;36.1
68873;BME280;55907;50.806;12.882;2023-05-18T10:56:15;983.1;;;17.6;35.7
68873;BME280;55907;50.806;12.882;2023-05-18T11:02:19;983.1;;;17.5;36.6
68873;BME280;55907;50.806;12.882;2023-05-18T11:05:22;983.1;;;17.6;36.5
68873;BME280;55907;50.806;12.882;2023-05-18T11:08:23;983.0;;;17.9;38.1
68873;BME280;55907;50.806;12.882;2023-05-18T11:11:22;983.0;;;17.8;36.1
68873;BME280;55907;50.806;12.882;2023-05-18T11:14:24;982.9;;;17.6;37.5
68873;BME280;55907;50.806;12.882;2023-05-18T11:20:26;982.9;;;17.3;37.1
68873;BME280;55907;50.806;12.882;2023-05-18T11:23:30;982.9;;;16.9;37.3
68873;BME280;55907;50.806;12.882;2023-05-18T11:26:29;982.9;;;17.0;38.0
68873;BME280;55907;50.806;12.882;2023-05-18T11:29:33;982.9;;;17.5;37.0
68873;BME280;55907;50.806;12.882;2023-05-18T11:32:32;983.0;;;17.8;37.0
68873;BME280;55907;50.806;12.882;2023-05-18T11:38:46;982.9;;;17.3;36.7
68873;BME280;55907;50.806;12.882;2023-05-18T11:41:37;982.9;;;17.0;37.6
68873;BME280;55907;50.806;12.882;2023-05-18T11:44:37;982.9;;;17.1;37.8
68873;BME280;55907;50.806;12.882;2023-05-18T11:47:39;982.8;;;17.5;37.1
68873;BME280;55907;50.806;12.882;2023-05-18T11:50:44;982.8;;;17.8;37.3
68873;BME280;55907;50.806;12.882;2023-05-18T11:59:46;982.8;;;18.0;36.8
68873;BME280;55907;50.806;12.882;2023-05-18T12:02:47;982.9;;;17.8;36.2
68873;BME280;55907;50.806;12.882;2023-05-18T12:08:49;982.8;;;17.3;38.9
68873;BME280;55907;50.806;12.882;2023-05-18T12:11:51;982.7;;;17.9;38.4
68873;BME280;55907;50.806;12.882;2023-05-18T12:14:53;982.7;;;18.1;35.5
68873;BME280;55907;50.806;12.882;2023-05-18T12:17:53;982.8;;;17.9;36.0
68873;BME280;55907;50.806;12.882;2023-05-18T12:20:54;982.7;;;17.5;36.0
68873;BME280;55907;50.806;12.882;2023-05-18T12:23:56;982.7;;;17.6;36.4
68873;BME280;55907;50.806;12.882;2023-05-18T12:26:57;982.6;;;18.3;35.1
68873;BME280;55907;50.806;12.882;2023-05-18T12:39:03;982.7;;;17.4;36.2
68873;BME280;55907;50.806;12.882;2023-05-18T12:42:09;982.7;;;17.4;36.3
68873;BME280;55907;50.806;12.882;2023-05-18T12:45:07;982.7;;;17.9;36.6
68873;BME280;55907;50.806;12.882;2023-05-18T12:48:09;982.6;;;17.8;35.2
68873;BME280;55907;50.806;12.882;2023-05-18T12:54:10;982.6;;;16.7;37.7
68873;BME280;55907;50.806;12.882;2023-05-18T12:57:11;982.6;;;16.5;38.7
68873;BME280;55907;50.806;12.882;2023-05-18T13:00:13;982.6;;;16.7;38.8
68873;BME280;55907;50.806;12.882;2023-05-18T13:03:15;982.6;;;16.6;38.7
68873;BME280;55907;50.806;12.882;2023-05-18T13:06:17;982.6;;;16.6;38.8
68873;BME280;55907;50.806;12.882;2023-05-18T13:09:17;982.6;;;16.5;38.2
68873;BME280;55907;50.806;12.882;2023-05-18T13:15:21;982.6;;;16.0;38.4
68873;BME280;55907;50.806;12.882;2023-05-18T13:18:21;982.5;;;16.2;39.5
68873;BME280;55907;50.806;12.882;2023-05-18T13:24:24;982.6;;;17.3;38.2
68873;BME280;55907;50.806;12.882;2023-05-18T13:27:27;982.5;;;17.7;36.2
68873;BME280;55907;50.806;12.882;2023-05-18T13:30:27;982.4;;;18.0;36.2
68873;BME280;55907;50.806;12.882;2023-05-18T13:33:28;982.4;;;17.7;36.3
68873;BME280;55907;50.806;12.882;2023-05-18T13:36:30;982.5;;;17.5;36.5
68873;BME280;55907;50.806;12.882;2023-05-18T13:39:31;982.4;;;17.3;37.2
68873;BME280;55907;50.806;12.882;2023-05-18T13:42:33;982.4;;;17.5;37.8
68873;BME280;55907;50.806;12.882;2023-05-18T13:45:34;982.3;;;17.6;36.6
68873;BME280;55907;50.806;12.882;2023-05-18T13:48:36;982.5;;;17.4;37.6
68873;BME280;55907;50.806;12.882;2023-05-18T13:51:37;982.4;;;17.1;38.1
68873;BME280;55907;50.806;12.882;2023-05-18T13:54:38;982.3;;;16.9;36.9
68873;BME280;55907;50.806;12.882;2023-05-18T13:57:40;982.3;;;17.0;37.9
68873;BME280;55907;50.806;12.882;2023-05-18T14:03:42;982.4;;;16.7;38.6
68873;BME280;55907;50.806;12.882;2023-05-18T14:06:44;982.3;;;16.5;38.8
68873;BME280;55907;50.806;12.882;2023-05-18T14:09:45;982.3;;;16.3;38.4
68873;BME280;55907;50.806;12.882;2023-05-18T14:12:47;982.3;;;16.4;38.5
68873;BME280;55907;50.806;12.882;2023-05-18T14:18:50;982.2;;;16.6;37.2
68873;BME280;55907;50.806;12.882;2023-05-18T14:21:51;982.2;;;16.9;38.2
68873;BME280;55907;50.806;12.882;2023-05-18T14:27:54;982.2;;;17.6;36.7
68873;BME280;55907;50.806;12.882;2023-05-18T14:40:00;982.3;;;16.6;37.4
68873;BME280;55907;50.806;12.882;2023-05-18T14:43:01;982.2;;;16.9;37.7
68873;BME280;55907;50.806;12.882;2023-05-18T14:49:04;982.2;;;17.5;36.0
68873;BME280;55907;50.806;12.882;2023-05-18T14:58:08;982.2;;;16.8;37.6
68873;BME280;55907;50.806;12.882;2023-05-18T15:01:10;982.2;;;16.6;37.6
68873;BME280;55907;50.806;12.882;2023-05-18T15:04:11;982.2;;;16.4;38.3
68873;BME280;55907;50.806;12.882;2023-05-18T15:10:14;982.2;;;16.4;39.6
68873;BME280;55907;50.806;12.882;2023-05-18T15:13:15;982.2;;;16.5;39.5
68873;BME280;55907;50.806;12.882;2023-05-18T15:16:17;982.3;;;16.3;38.2
68873;BME280;55907;50.806;12.882;2023-05-18T15:19:18;982.2;;;16.3;38.8
68873;BME280;55907;50.806;12.882;2023-05-18T15:22:20;982.1;;;16.6;38.8
68873;BME280;55907;50.806;12.882;2023-05-18T15:25:21;982.1;;;16.9;39.1
68873;BME280;55907;50.806;12.882;2023-05-18T15:31:24;982.1;;;16.8;38.8
68873;BME280;55907;50.806;12.882;2023-05-18T15:37:27;982.1;;;16.1;39.7
68873;BME280;55907;50.806;12.882;2023-05-18T15:40:28;982.0;;;16.1;39.8
68873;BME280;55907;50.806;12.882;2023-05-18T15:43:30;982.0;;;16.2;39.9
68873;BME280;55907;50.806;12.882;2023-05-18T15:46:31;982.0;;;16.4;39.7
68873;BME280;55907;50.806;12.882;2023-05-18T15:49:32;981.9;;;16.5;39.3
68873;BME280;55907;50.806;12.882;2023-05-18T15:52:34;982.0;;;16.2;40.6
68873;BME280;55907;50.806;12.882;2023-05-18T15:55:35;982.0;;;16.1;40.4
68873;BME280;55907;50.806;12.882;2023-05-18T16:01:38;982.0;;;15.8;40.3
68873;BME280;55907;50.806;12.882;2023-05-18T16:07:41;981.9;;;15.5;40.8
68873;BME280;55907;50.806;12.882;2023-05-18T16:10:42;981.9;;;15.2;41.0
68873;BME280;55907;50.806;12.882;2023-05-18T16:13:44;982.0;;;15.1;41.5
68873;BME280;55907;50.806;12.882;2023-05-18T16:16:45;982.0;;;15.1;41.9
68873;BME280;55907;50.806;12.882;2023-05-18T16:19:47;982.0;;;15.1;41.8
68873;BME280;55907;50.806;12.882;2023-05-18T16:22:48;982.0;;;15.0;41.9
68873;BME280;55907;50.806;12.882;2023-05-18T16:25:50;982.0;;;14.8;42.2
68873;BME280;55907;50.806;12.882;2023-05-18T16:28:51;981.9;;;14.7;42.7
68873;BME280;55907;50.806;12.882;2023-05-18T16:31:53;981.9;;;14.6;43.4
68873;BME280;55907;50.806;12.882;2023-05-18T16:34:54;981.9;;;14.5;43.7
68873;BME280;55907;50.806;12.882;2023-05-18T16:37:56;981.9;;;14.5;43.7
68873;BME280;55907;50.806;12.882;2023-05-18T16:40:57;981.9;;;14.5;43.5
68873;BME280;55907;50.806;12.882;2023-05-18T16:43:58;981.9;;;14.4;43.5
68873;BME280;55907;50.806;12.882;2023-05-18T16:47:00;981.9;;;14.5;43.1
68873;BME280;55907;50.806;12.882;2023-05-18T16:50:02;981.9;;;14.6;42.9
68873;BME280;55907;50.806;12.882;2023-05-18T16:53:03;981.9;;;14.6;43.2
68873;BME280;55907;50.806;12.882;2023-05-18T17:02:07;981.9;;;14.6;42.9
68873;BME280;55907;50.806;12.882;2023-05-18T17:20:16;981.9;;;14.2;44.0
68873;BME280;55907;50.806;12.882;2023-05-18T17:23:17;981.9;;;14.2;44.5
68873;BME280;55907;50.806;12.882;2023-05-18T17:32:22;981.9;;;14.0;44.9
68873;BME280;55907;50.806;12.882;2023-05-18T17:35:23;981.8;;;13.9;45.4
68873;BME280;55907;50.806;12.882;2023-05-18T17:38:25;981.9;;;13.8;45.1
68873;BME280;55907;50.806;12.882;2023-05-18T17:41:26;981.9;;;13.9;45.4
68873;BME280;55907;50.806;12.882;2023-05-18T17:44:28;981.9;;;13.9;45.3
68873;BME280;55907;50.806;12.882;2023-05-18T17:47:29;981.9;;;14.0;45.1
68873;BME280;55907;50.806;12.882;2023-05-18T17:50:30;981.9;;;14.1;45.3
68873;BME280;55907;50.806;12.882;2023-05-18T17:56:34;981.9;;;14.2;45.1
68873;BME280;55907;50.806;12.882;2023-05-18T17:59:35;981.9;;;14.2;45.1
68873;BME280;55907;50.806;12.882;2023-05-18T18:02:36;981.9;;;14.1;45.1
68873;BME280;55907;50.806;12.882;2023-05-18T18:05:38;981.9;;;14.1;45.3
68873;BME280;55907;50.806;12.882;2023-05-18T18:08:39;981.9;;;13.9;45.6
68873;BME280;55907;50.806;12.882;2023-05-18T18:11:41;981.9;;;13.9;45.7
68873;BME280;55907;50.806;12.882;2023-05-18T18:14:42;981.9;;;13.8;45.6
68873;BME280;55907;50.806;12.882;2023-05-18T18:17:43;982.0;;;13.7;45.7
68873;BME280;55907;50.806;12.882;2023-05-18T18:23:15;unavailable;;;unavailable;unavailable
68873;BME280;55907;50.806;12.882;2023-05-18T18:23:19;982.0;;;13.7;unavailable
68873;BME280;55907;50.806;12.882;2023-05-18T18:26:48;982.0;;;13.8;45.8
68873;BME280;55907;50.806;12.882;2023-05-18T18:29:49;981.9;;;13.8;46.0
68873;BME280;55907;50.806;12.882;2023-05-18T18:32:51;981.9;;;13.8;45.6
68873;BME280;55907;50.806;12.882;2023-05-18T18:35:53;982.0;;;13.7;46.2
68873;BME280;55907;50.806;12.882;2023-05-18T18:38:54;982.0;;;13.5;46.1
68873;BME280;55907;50.806;12.882;2023-05-18T18:41:55;982.0;;;13.4;46.4
68873;BME280;55907;50.806;12.882;2023-05-18T18:44:56;982.0;;;13.4;46.8
68873;BME280;55907;50.806;12.882;2023-05-18T18:47:58;982.0;;;13.3;47.4
68873;BME280;55907;50.806;12.882;2023-05-18T18:50:59;982.0;;;13.2;47.8
68873;BME280;55907;50.806;12.882;2023-05-18T18:54:01;982.0;;;13.1;47.7
68873;BME280;55907;50.806;12.882;2023-05-18T18:57:02;982.0;;;13.1;48.0
68873;BME280;55907;50.806;12.882;2023-05-18T19:00:05;982.1;;;13.0;48.1
68873;BME280;55907;50.806;12.882;2023-05-18T19:03:05;982.1;;;13.0;48.7
68873;BME280;55907;50.806;12.882;2023-05-18T19:09:08;982.3;;;12.9;49.3
68873;BME280;55907;50.806;12.882;2023-05-18T19:18:12;982.4;;;12.8;49.3
68873;BME280;55907;50.806;12.882;2023-05-18T19:21:14;982.4;;;12.8;49.4
68873;BME280;55907;50.806;12.882;2023-05-18T19:24:15;982.4;;;12.8;49.5
68873;BME280;55907;50.806;12.882;2023-05-18T19:27:17;982.4;;;12.8;49.7
68873;BME280;55907;50.806;12.882;2023-05-18T19:30:19;982.4;;;12.7;49.7
68873;BME280;55907;50.806;12.882;2023-05-18T19:33:20;982.5;;;12.7;50.1
68873;BME280;55907;50.806;12.882;2023-05-18T19:36:21;982.5;;;12.7;49.7
68873;BME280;55907;50.806;12.882;2023-05-18T19:42:24;982.5;;;12.7;50.3
68873;BME280;55907;50.806;12.882;2023-05-18T19:45:26;982.5;;;12.7;49.9
68873;BME280;55907;50.806;12.882;2023-05-18T19:54:30;982.5;;;12.6;50.3
68873;BME280;55907;50.806;12.882;2023-05-18T19:57:31;982.5;;;12.6;50.3
68873;BME280;55907;50.806;12.882;2023-05-18T20:00:33;982.5;;;12.6;50.0
68873;BME280;55907;50.806;12.882;2023-05-18T20:06:36;982.6;;;12.6;50.4
68873;BME280;55907;50.806;12.882;2023-05-18T20:09:37;982.6;;;12.5;50.8
68873;BME280;55907;50.806;12.882;2023-05-18T20:15:40;982.6;;;12.5;50.1
68873;BME280;55907;50.806;12.882;2023-05-18T20:24:45;982.5;;;12.4;50.3
68873;BME280;55907;50.806;12.882;2023-05-18T20:27:46;982.6;;;12.4;50.8
68873;BME280;55907;50.806;12.882;2023-05-18T20:30:47;982.5;;;12.4;51.1
68873;BME280;55907;50.806;12.882;2023-05-18T20:33:49;982.5;;;12.4;50.8
68873;BME280;55907;50.806;12.882;2023-05-18T20:36:50;982.5;;;12.3;50.6
68873;BME280;55907;50.806;12.882;2023-05-18T20:39:52;982.6;;;12.3;50.7